createdAt,value
2023-04-16T00:01:25.745Z,97598.31
2023-04-16T00:03:52.489Z,97593.34
2023-04-16T00:06:19.199Z,97590.81
2023-04-16T00:08:45.755Z,97596.34
2023-04-16T00:11:12.321Z,97592.34
2023-04-16T00:13:38.838Z,97592.91
2023-04-16T00:16:05.602Z,97597.47
2023-04-16T00:18:32.112Z,97599.97
2023-04-16T00:20:59.539Z,97594.47
2023-04-16T00:23:26.023Z,97599.56
2023-04-16T00:25:53.743Z,97599.56
2023-04-16T00:28:20.517Z,97598.81
2023-04-16T00:30:47.113Z,97600.84
2023-04-16T00:33:13.599Z,97588.22
2023-04-16T00:35:40.237Z,97603.47
2023-04-16T00:38:06.754Z,97599.56
2023-04-16T00:40:33.245Z,97601.22
2023-04-16T00:42:59.877Z,97603.03
2023-04-16T00:45:26.357Z,97600.22
2023-04-16T00:47:52.889Z,97596.44
2023-04-16T00:50:19.572Z,97602.94
2023-04-16T00:52:47.555Z,97599.66
2023-04-16T00:55:15.120Z,97599.91
2023-04-16T00:57:41.631Z,97597.56
2023-04-16T01:00:08.671Z,97600.38
2023-04-16T01:02:35.264Z,97606.78
2023-04-16T01:05:02.291Z,97610.13
2023-04-16T01:07:28.992Z,97604.31
2023-04-16T01:09:56.277Z,97603.47
2023-04-16T01:12:22.949Z,97605.47
2023-04-16T01:14:49.380Z,97602.94
2023-04-16T01:17:15.839Z,97597.00
2023-04-16T01:19:43.055Z,97605.75
2023-04-16T01:22:09.558Z,97599.63
2023-04-16T01:24:36.505Z,97606.41
2023-04-16T01:27:03.113Z,97605.13
2023-04-16T01:29:29.616Z,97606.13
2023-04-16T01:31:56.114Z,97618.69
2023-04-16T01:34:23.987Z,97610.75
2023-04-16T01:36:51.080Z,97614.69
2023-04-16T01:39:19.340Z,97623.28
2023-04-16T01:41:45.871Z,97620.28
2023-04-16T01:44:12.360Z,97615.97
2023-04-16T01:46:38.894Z,97617.34
2023-04-16T01:49:06.073Z,97615.34
2023-04-16T01:51:32.756Z,97612.72
2023-04-16T01:53:59.250Z,97616.06
2023-04-16T01:56:26.310Z,97613.97
2023-04-16T01:58:53.126Z,97620.25
2023-04-16T02:01:19.661Z,97615.44
2023-04-16T02:03:46.441Z,97618.31
2023-04-16T02:06:13.032Z,97614.28
2023-04-16T02:08:39.559Z,97619.97
2023-04-16T02:11:06.035Z,97624.34
2023-04-16T02:13:32.521Z,97620.88
2023-04-16T02:15:59.220Z,97624.16
2023-04-16T02:18:25.800Z,97620.81
2023-04-16T02:20:52.269Z,97625.47
2023-04-16T02:23:18.764Z,97637.88
2023-04-16T02:25:46.407Z,97642.06
2023-04-16T02:28:14.664Z,97642.06
2023-04-16T02:30:41.147Z,97637.81
2023-04-16T02:33:08.515Z,97641.44
2023-04-16T02:35:35.329Z,97642.06
2023-04-16T02:38:02.024Z,97647.72
2023-04-16T02:40:29.005Z,97646.13
2023-04-16T02:42:55.720Z,97644.00
2023-04-16T02:45:22.303Z,97655.03
2023-04-16T02:47:49.245Z,97655.25
2023-04-16T02:50:16.086Z,97658.69
2023-04-16T02:52:42.637Z,97657.03
2023-04-16T02:55:10.188Z,97653.47
2023-04-16T02:57:36.701Z,97656.19
2023-04-16T03:00:04.995Z,97658.00
2023-04-16T03:02:31.914Z,97659.28
2023-04-16T03:04:58.453Z,97658.00
2023-04-16T03:07:24.982Z,97661.94
2023-04-16T03:09:51.800Z,97661.31
2023-04-16T03:12:18.244Z,97655.88
2023-04-16T03:14:44.720Z,97653.38
2023-04-16T03:17:11.611Z,97653.47
2023-04-16T03:19:38.063Z,97668.34
2023-04-16T03:22:04.671Z,97660.66
2023-04-16T03:24:31.239Z,97669.34
2023-04-16T03:26:58.382Z,97666.25
2023-04-16T03:29:26.751Z,97671.59
2023-04-16T03:31:53.364Z,97675.53
2023-04-16T03:34:19.914Z,97682.63
2023-04-16T03:36:46.406Z,97672.72
2023-04-16T03:39:13.009Z,97678.00
2023-04-16T03:41:39.489Z,97682.41
2023-04-16T03:44:06.193Z,97677.66
2023-04-16T03:46:32.807Z,97671.25
2023-04-16T03:48:59.304Z,97686.03
2023-04-16T03:51:26.423Z,97686.94
2023-04-16T03:53:53.140Z,97683.63
2023-04-16T03:56:19.665Z,97676.75
2023-04-16T03:58:46.148Z,97682.25
2023-04-16T04:01:12.689Z,97688.97
2023-04-16T04:03:39.399Z,97692.81
2023-04-16T04:06:09.307Z,97691.16
2023-04-16T04:08:35.819Z,97694.81
2023-04-16T04:11:02.283Z,97692.81
2023-04-16T04:13:28.776Z,97704.78
2023-04-16T04:15:55.344Z,97699.50
2023-04-16T04:18:21.909Z,97703.41
2023-04-16T04:20:48.393Z,97703.13
2023-04-16T04:23:14.914Z,97700.53
2023-04-16T04:25:41.421Z,97704.84
2023-04-16T04:28:07.893Z,97703.94
2023-04-16T04:30:35.827Z,97702.19
2023-04-16T04:33:02.376Z,97711.38
2023-04-16T04:35:28.917Z,97718.94
2023-04-16T04:37:55.735Z,97719.16
2023-04-16T04:40:22.264Z,97724.16
2023-04-16T04:42:48.863Z,97725.44
2023-04-16T04:45:15.914Z,97735.19
2023-04-16T04:47:42.397Z,97731.94
2023-04-16T04:50:09.390Z,97734.28
2023-04-16T04:52:35.902Z,97736.03
2023-04-16T04:55:02.347Z,97733.31
2023-04-16T04:57:28.808Z,97738.06
2023-04-16T04:59:55.481Z,97739.03
2023-04-16T05:02:22.058Z,97744.63
2023-04-16T05:04:48.618Z,97742.59
2023-04-16T05:07:15.509Z,97741.91
2023-04-16T05:09:41.968Z,97744.84
2023-04-16T05:12:08.530Z,97741.91
2023-04-16T05:14:36.172Z,97739.25
2023-04-16T05:17:02.881Z,97748.47
2023-04-16T05:19:29.457Z,97751.78
2023-04-16T05:21:56.209Z,97762.47
2023-04-16T05:24:22.678Z,97755.88
2023-04-16T05:26:49.180Z,97761.09
2023-04-16T05:29:15.928Z,97764.41
2023-04-16T05:31:42.412Z,97765.41
2023-04-16T05:34:08.868Z,97757.25
2023-04-16T05:36:35.459Z,97772.53
2023-04-16T05:39:01.966Z,97770.03
2023-04-16T05:41:28.405Z,97779.25
2023-04-16T05:43:54.931Z,97779.69
2023-04-16T05:46:21.451Z,97782.09
2023-04-16T05:48:47.953Z,97781.78
2023-04-16T05:51:14.463Z,97787.91
2023-04-16T05:53:40.972Z,97785.03
2023-04-16T05:56:07.844Z,97787.81
2023-04-16T05:58:34.384Z,97787.75
2023-04-16T06:01:01.204Z,97785.81
2023-04-16T06:03:28.012Z,97786.13
2023-04-16T06:05:54.672Z,97785.94
2023-04-16T06:08:21.269Z,97789.25
2023-04-16T06:10:47.747Z,97794.78
2023-04-16T06:13:14.502Z,97779.41
2023-04-16T06:15:40.979Z,97792.34
2023-04-16T06:18:07.541Z,97787.41
2023-04-16T06:20:34.110Z,97792.44
2023-04-16T06:23:00.745Z,97790.41
2023-04-16T06:25:27.256Z,97791.06
2023-04-16T06:27:53.798Z,97793.09
2023-04-16T06:30:20.536Z,97789.13
2023-04-16T06:32:47.126Z,97789.34
2023-04-16T06:35:13.848Z,97791.16
2023-04-16T06:37:40.537Z,97803.44
2023-04-16T06:40:07.569Z,97796.84
2023-04-16T06:42:34.085Z,97796.84
2023-04-16T06:45:00.590Z,97796.84
2023-04-16T06:47:27.362Z,97801.03
2023-04-16T06:49:53.898Z,97803.50
2023-04-16T06:52:20.437Z,97807.13
2023-04-16T06:54:47.979Z,97800.50
2023-04-16T06:57:14.545Z,97806.50
2023-04-16T06:59:41.004Z,97803.00
2023-04-16T07:02:09.186Z,97812.47
2023-04-16T07:04:35.893Z,97816.47
2023-04-16T07:07:02.362Z,97817.13
2023-04-16T07:09:28.847Z,97808.16
2023-04-16T07:11:55.675Z,97812.97
2023-04-16T07:14:22.141Z,97809.81
2023-04-16T07:16:48.682Z,97810.19
2023-04-16T07:19:15.302Z,97811.34
2023-04-16T07:21:44.499Z,97814.13
2023-04-16T07:24:14.105Z,97813.91
2023-04-16T07:26:40.661Z,97812.13
2023-04-16T07:29:07.224Z,97819.38
2023-04-16T07:31:33.836Z,97820.19
2023-04-16T07:34:00.659Z,97822.16
2023-04-16T07:36:28.331Z,97822.03
2023-04-16T07:38:54.818Z,97825.34
2023-04-16T07:41:21.357Z,97821.34
2023-04-16T07:43:47.838Z,97828.78
2023-04-16T07:46:14.388Z,97832.44
2023-04-16T07:48:41.266Z,97825.97
2023-04-16T07:51:07.766Z,97829.50
2023-04-16T07:53:34.234Z,97827.19
2023-04-16T07:56:00.779Z,97833.34
2023-04-16T07:58:27.272Z,97841.69
2023-04-16T08:00:53.752Z,97841.00
2023-04-16T08:03:20.376Z,97838.03
2023-04-16T08:05:46.991Z,97844.69
2023-04-16T08:08:13.469Z,97848.84
2023-04-16T08:10:39.983Z,97851.66
2023-04-16T08:13:06.514Z,97854.94
2023-04-16T08:15:33.029Z,97852.72
2023-04-16T08:17:59.852Z,97860.69
2023-04-16T08:20:26.460Z,97852.41
2023-04-16T08:22:53.795Z,97858.84
2023-04-16T08:25:21.086Z,97872.47
2023-04-16T08:27:47.565Z,97867.00
2023-04-16T08:30:15.116Z,97872.47
2023-04-16T08:32:41.674Z,97876.44
2023-04-16T08:35:08.672Z,97871.47
2023-04-16T08:37:35.362Z,97875.13
2023-04-16T08:40:02.510Z,97881.50
2023-04-16T08:42:40.604Z,97881.84
2023-04-16T08:45:08.915Z,97883.53
2023-04-16T08:47:36.845Z,97887.63
2023-04-16T08:50:04.761Z,97889.19
2023-04-16T08:52:31.366Z,97894.13
2023-04-16T08:55:05.323Z,97902.44
2023-04-16T08:57:39.853Z,97891.81
2023-04-16T09:00:07.817Z,97894.53
2023-04-16T09:02:34.785Z,97894.22
2023-04-16T09:05:01.549Z,97902.19
2023-04-16T09:07:29.034Z,97899.25
2023-04-16T09:09:55.674Z,97905.88
2023-04-16T09:12:24.054Z,97908.50
2023-04-16T09:14:50.996Z,97903.72
2023-04-16T09:17:18.422Z,97910.53
2023-04-16T09:19:47.997Z,97916.19
2023-04-16T09:22:14.635Z,97915.47
2023-04-16T09:24:41.919Z,97924.31
2023-04-16T09:27:08.779Z,97918.44
2023-04-16T09:29:36.394Z,97915.47
2023-04-16T09:32:04.370Z,97917.78
2023-04-16T09:34:33.323Z,97922.13
2023-04-16T09:37:16.720Z,97923.44
2023-04-16T09:39:54.206Z,97919.16
2023-04-16T09:42:36.905Z,97914.13
2023-04-16T09:45:05.692Z,97921.75
2023-04-16T09:47:43.386Z,97928.63
2023-04-16T09:50:12.682Z,97923.66
2023-04-16T09:52:39.725Z,97917.06
2023-04-16T09:55:06.420Z,97927.44
2023-04-16T09:57:32.999Z,97923.09
2023-04-16T10:00:08.886Z,97923.13
2023-04-16T10:02:35.983Z,97920.78
2023-04-16T10:05:03.177Z,97918.50
2023-04-16T10:07:29.880Z,97918.59
2023-04-16T10:09:56.401Z,97919.72
2023-04-16T10:12:23.042Z,97929.09
2023-04-16T10:14:50.411Z,97932.59
2023-04-16T10:17:17.252Z,97934.13
2023-04-16T10:19:43.715Z,97934.97
2023-04-16T10:22:11.004Z,97936.78
2023-04-16T10:24:37.618Z,97926.69
2023-04-16T10:27:04.102Z,97932.94
2023-04-16T10:29:31.404Z,97929.88
2023-04-16T10:31:58.025Z,97927.78
2023-04-16T10:34:24.683Z,97930.69
2023-04-16T10:36:52.875Z,97931.41
2023-04-16T10:39:21.371Z,97929.50
2023-04-16T10:41:47.943Z,97936.88
2023-04-16T10:44:16.543Z,97933.63
2023-04-16T10:46:43.861Z,97927.78
2023-04-16T10:49:20.387Z,97936.97
2023-04-16T10:52:00.221Z,97927.91
2023-04-16T10:54:27.738Z,97937.59
2023-04-16T10:56:56.322Z,97938.09
2023-04-16T10:59:23.710Z,97948.78
2023-04-16T11:01:52.180Z,97936.22
2023-04-16T11:04:22.205Z,97934.47
2023-04-16T11:07:07.333Z,97944.28
2023-04-16T11:10:02.165Z,97942.03
2023-04-16T11:12:35.855Z,97936.84
2023-04-16T11:15:03.951Z,97939.53
2023-04-16T11:17:47.270Z,97936.22
2023-04-16T11:20:19.770Z,97931.69
2023-04-16T11:22:47.141Z,97936.56
2023-04-16T11:25:13.636Z,97934.63
2023-04-16T11:27:40.997Z,97935.38
2023-04-16T11:30:11.271Z,97935.66
2023-04-16T11:32:38.436Z,97936.88
2023-04-16T11:35:15.871Z,97937.66
2023-04-16T11:37:42.414Z,97943.34
2023-04-16T11:40:12.417Z,97939.44
2023-04-16T11:42:43.349Z,97942.19
2023-04-16T11:45:11.027Z,97938.50
2023-04-16T11:47:47.313Z,97938.53
2023-04-16T11:50:17.806Z,97940.91
2023-04-16T11:52:44.294Z,97943.50
2023-04-16T11:55:10.928Z,97937.59
2023-04-16T11:57:38.230Z,97946.25
2023-04-16T12:00:11.348Z,97949.06
2023-04-16T12:02:41.703Z,97948.78
2023-04-16T12:05:26.985Z,97945.66
2023-04-16T12:07:53.453Z,97947.75
2023-04-16T12:10:19.923Z,97947.81
2023-04-16T12:12:46.499Z,97952.50
2023-04-16T12:15:12.972Z,97949.03
2023-04-16T12:17:39.475Z,97954.38
2023-04-16T12:20:11.039Z,97948.56
2023-04-16T12:22:43.935Z,97948.22
2023-04-16T12:25:17.270Z,97947.59
2023-04-16T12:27:51.333Z,97946.84
2023-04-16T12:30:20.697Z,97948.34
2023-04-16T12:32:48.786Z,97951.53
2023-04-16T12:35:32.576Z,97951.63
2023-04-16T12:37:59.398Z,97955.56
2023-04-16T12:40:26.037Z,97943.25
2023-04-16T12:42:52.556Z,97948.22
2023-04-16T12:45:19.118Z,97948.00
2023-04-16T12:47:46.130Z,97944.38
2023-04-16T12:50:12.995Z,97945.78
2023-04-16T12:52:39.517Z,97946.25
2023-04-16T12:55:06.632Z,97944.06
2023-04-16T12:57:33.150Z,97947.31
2023-04-16T12:59:59.642Z,97942.06
2023-04-16T13:02:26.266Z,97941.75
2023-04-16T13:04:53.240Z,97944.88
2023-04-16T13:07:19.895Z,97947.91
2023-04-16T13:09:46.457Z,97948.66
2023-04-16T13:12:13.005Z,97955.63
2023-04-16T13:14:39.528Z,97954.28
2023-04-16T13:17:06.113Z,97948.84
2023-04-16T13:19:32.654Z,97946.25
2023-04-16T13:21:59.178Z,97950.16
2023-04-16T13:24:25.801Z,97951.94
2023-04-16T13:26:52.556Z,97946.69
2023-04-16T13:29:19.749Z,97949.13
2023-04-16T13:31:46.693Z,97958.63
2023-04-16T13:34:13.275Z,97955.66
2023-04-16T13:36:40.268Z,97952.97
2023-04-16T13:39:11.239Z,97944.84
2023-04-16T13:41:38.680Z,97951.38
2023-04-16T13:44:05.577Z,97952.25
2023-04-16T13:46:32.156Z,97952.97
2023-04-16T13:48:58.713Z,97956.03
2023-04-16T13:51:25.281Z,97951.38
2023-04-16T13:53:51.756Z,97958.06
2023-04-16T13:56:18.917Z,97952.81
2023-04-16T13:58:45.384Z,97955.66
2023-04-16T14:01:12.268Z,97954.38
2023-04-16T14:03:40.592Z,97949.63
2023-04-16T14:06:07.161Z,97946.00
2023-04-16T14:08:33.714Z,97951.19
2023-04-16T14:11:00.655Z,97952.09
2023-04-16T14:13:27.108Z,97949.94
2023-04-16T14:15:54.106Z,97954.84
2023-04-16T14:18:20.734Z,97955.16
2023-04-16T14:20:47.592Z,97954.97
2023-04-16T14:23:14.178Z,97955.22
2023-04-16T14:25:40.905Z,97950.50
2023-04-16T14:28:08.775Z,97950.03
2023-04-16T14:30:35.339Z,97960.94
2023-04-16T14:33:01.996Z,97951.53
2023-04-16T14:35:28.528Z,97949.69
2023-04-16T14:37:55.000Z,97956.69
2023-04-16T14:40:21.501Z,97944.09
2023-04-16T14:42:48.003Z,97954.22
2023-04-16T14:45:14.499Z,97956.41
2023-04-16T14:47:46.202Z,97959.81
2023-04-16T14:50:12.949Z,97962.19
2023-04-16T14:52:39.711Z,97965.97
2023-04-16T14:55:07.002Z,97962.53
2023-04-16T14:57:33.514Z,97966.81
2023-04-16T15:00:00.009Z,97970.03
2023-04-16T15:02:26.860Z,97969.72
2023-04-16T15:04:53.467Z,97977.09
2023-04-16T15:07:19.967Z,97980.09
2023-04-16T15:09:46.530Z,97980.13
2023-04-16T15:12:13.076Z,97983.28
2023-04-16T15:14:39.557Z,97981.53
2023-04-16T15:17:06.456Z,97991.38
2023-04-16T15:19:33.065Z,97986.16
2023-04-16T15:21:59.577Z,97983.88
2023-04-16T15:24:26.280Z,97991.50
2023-04-16T15:26:52.817Z,97984.28
2023-04-16T15:29:19.317Z,97985.75
2023-04-16T15:31:45.836Z,97988.75
2023-04-16T15:34:12.578Z,97991.56
2023-04-16T15:36:39.268Z,97990.81
2023-04-16T15:39:05.771Z,97988.69
2023-04-16T15:41:32.246Z,97987.38
2023-04-16T15:43:58.743Z,97994.56
2023-04-16T15:46:25.290Z,97993.94
2023-04-16T15:48:51.801Z,98002.31
2023-04-16T15:51:18.299Z,98002.69
2023-04-16T15:53:46.116Z,97989.38
2023-04-16T15:56:12.607Z,97998.84
2023-04-16T15:58:39.106Z,97994.72
2023-04-16T16:01:05.630Z,97994.69
2023-04-16T16:03:33.867Z,98005.66
2023-04-16T16:06:01.617Z,97997.84
2023-04-16T16:08:29.540Z,98004.84
2023-04-16T16:10:56.636Z,98015.00
2023-04-16T16:13:23.226Z,98014.31
2023-04-16T16:15:50.963Z,98010.63
2023-04-16T16:18:17.502Z,98009.69
2023-04-16T16:20:44.039Z,98007.50
2023-04-16T16:23:10.883Z,98011.16
2023-04-16T16:25:37.436Z,98012.31
2023-04-16T16:28:06.519Z,98007.31
2023-04-16T16:30:33.322Z,98016.31
2023-04-16T16:32:59.840Z,98010.34
2023-04-16T16:35:26.347Z,98018.47
2023-04-16T16:37:55.737Z,98021.00
2023-04-16T16:40:22.309Z,98012.97
2023-04-16T16:42:48.820Z,98011.50
2023-04-16T16:45:15.686Z,98017.50
2023-04-16T16:47:42.175Z,98018.28
2023-04-16T16:50:11.308Z,98010.47
2023-04-16T16:52:38.901Z,98013.00
2023-04-16T16:55:08.560Z,98016.81
2023-04-16T16:57:35.040Z,98016.66
2023-04-16T17:00:01.690Z,98016.31
2023-04-16T17:02:28.264Z,98011.03
2023-04-16T17:04:54.912Z,98010.97
2023-04-16T17:07:21.474Z,98014.97
2023-04-16T17:09:47.929Z,98017.47
2023-04-16T17:12:14.442Z,98027.47
2023-04-16T17:14:41.240Z,98025.63
2023-04-16T17:17:07.761Z,98026.31
2023-04-16T17:19:34.267Z,98029.94
2023-04-16T17:22:00.989Z,98026.63
2023-04-16T17:24:27.457Z,98035.59
2023-04-16T17:26:54.026Z,98035.25
2023-04-16T17:29:25.918Z,98038.56
2023-04-16T17:31:53.269Z,98041.50
2023-04-16T17:34:20.984Z,98048.84
2023-04-16T17:36:47.521Z,98049.03
2023-04-16T17:39:14.585Z,98046.75
2023-04-16T17:41:41.072Z,98047.72
2023-04-16T17:44:09.338Z,98047.59
2023-04-16T17:46:37.080Z,98054.03
2023-04-16T17:49:03.636Z,98056.34
2023-04-16T17:51:31.099Z,98055.22
2023-04-16T17:53:57.596Z,98062.19
2023-04-16T17:56:24.145Z,98063.69
2023-04-16T17:58:50.783Z,98067.66
2023-04-16T18:01:17.229Z,98069.28
2023-04-16T18:03:44.423Z,98074.88
2023-04-16T18:06:11.618Z,98075.09
2023-04-16T18:08:38.168Z,98082.63
2023-04-16T18:11:08.354Z,98085.06
2023-04-16T18:13:35.417Z,98087.25
2023-04-16T18:16:02.497Z,98085.13
2023-04-16T18:18:29.034Z,98093.31
2023-04-16T18:20:55.813Z,98091.25
2023-04-16T18:23:22.328Z,98100.59
2023-04-16T18:25:48.976Z,98104.47
2023-04-16T18:28:15.613Z,98105.22
2023-04-16T18:30:42.802Z,98108.31
2023-04-16T18:33:30.600Z,98110.88
2023-04-16T18:35:55.937Z,98117.47
2023-04-16T18:38:22.699Z,98116.75
2023-04-16T18:40:49.776Z,98117.69
2023-04-16T18:43:16.489Z,98120.91
2023-04-16T18:45:42.946Z,98117.03
2023-04-16T18:48:09.442Z,98121.28
2023-04-16T18:50:36.060Z,98126.56
2023-04-16T18:53:02.680Z,98125.47
2023-04-16T18:55:30.230Z,98128.28
2023-04-16T18:57:56.995Z,98138.03
2023-04-16T19:00:23.536Z,98134.69
2023-04-16T19:02:50.276Z,98137.63
2023-04-16T19:05:17.001Z,98143.06
2023-04-16T19:07:43.492Z,98142.63
2023-04-16T19:10:10.156Z,98146.50
2023-04-16T19:12:36.951Z,98141.66
2023-04-16T19:15:04.362Z,98140.25
2023-04-16T19:17:30.886Z,98142.91
2023-04-16T19:19:57.591Z,98152.94
2023-04-16T19:22:24.123Z,98149.19
2023-04-16T19:24:50.580Z,98149.19
2023-04-16T19:27:17.072Z,98151.41
2023-04-16T19:29:43.595Z,98147.78
2023-04-16T19:32:10.235Z,98153.31
2023-04-16T19:34:36.784Z,98144.69
2023-04-16T19:37:03.252Z,98148.06
2023-04-16T19:39:29.792Z,98153.06
2023-04-16T19:41:56.379Z,98165.19
2023-04-16T19:44:23.222Z,98158.94
2023-04-16T19:46:49.688Z,98163.09
2023-04-16T19:49:16.224Z,98167.72
2023-04-16T19:51:42.677Z,98166.31
2023-04-16T19:54:09.155Z,98169.22
2023-04-16T19:56:35.854Z,98169.06
2023-04-16T19:59:02.532Z,98170.03
2023-04-16T20:01:30.776Z,98168.91
2023-04-16T20:03:57.389Z,98174.47
2023-04-16T20:06:24.237Z,98170.84
2023-04-16T20:08:50.726Z,98170.56
2023-04-16T20:11:17.680Z,98176.44
2023-04-16T20:13:47.711Z,98176.44
2023-04-16T20:16:14.508Z,98179.53
2023-04-16T20:18:44.035Z,98179.53
2023-04-16T20:21:10.866Z,98182.59
2023-04-16T20:23:37.413Z,98179.25
2023-04-16T20:26:04.473Z,98173.69
2023-04-16T20:28:30.989Z,98181.19
2023-04-16T20:30:57.515Z,98179.53
2023-04-16T20:33:24.389Z,98169.94
2023-04-16T20:35:52.168Z,98178.69
2023-04-16T20:38:23.734Z,98170.22
2023-04-16T20:40:58.179Z,98177.03
2023-04-16T20:43:25.982Z,98172.69
2023-04-16T20:45:52.458Z,98170.06
2023-04-16T20:48:18.973Z,98170.22
2023-04-16T20:50:45.529Z,98172.03
2023-04-16T20:53:12.959Z,98179.81
2023-04-16T20:55:39.562Z,98180.94
2023-04-16T20:58:06.461Z,98178.81
2023-04-16T21:00:32.998Z,98176.88
2023-04-16T21:02:59.708Z,98184.00
2023-04-16T21:05:26.492Z,98181.47
2023-04-16T21:07:55.391Z,98179.22
2023-04-16T21:10:22.396Z,98175.50
2023-04-16T21:12:48.948Z,98186.22
2023-04-16T21:15:15.575Z,98186.06
2023-04-16T21:17:42.179Z,98177.88
2023-04-16T21:20:13.412Z,98175.75
2023-04-16T21:22:39.926Z,98181.47
2023-04-16T21:25:07.152Z,98180.78
2023-04-16T21:27:33.604Z,98180.53
2023-04-16T21:30:00.067Z,98178.72
2023-04-16T21:32:26.599Z,98178.16
2023-04-16T21:34:53.119Z,98174.38
2023-04-16T21:37:19.565Z,98180.38
2023-04-16T21:39:46.176Z,98184.69
2023-04-16T21:42:12.626Z,98177.56
2023-04-16T21:44:39.109Z,98182.72
2023-04-16T21:47:05.797Z,98178.41
2023-04-16T21:49:32.360Z,98178.72
2023-04-16T21:51:59.226Z,98178.41
2023-04-16T21:54:25.832Z,98178.72
2023-04-16T21:56:52.320Z,98173.69
2023-04-16T21:59:18.790Z,98184.81
2023-04-16T22:01:45.365Z,98177.72
2023-04-16T22:04:12.206Z,98186.91
2023-04-16T22:06:38.745Z,98181.47
2023-04-16T22:09:05.331Z,98181.47
2023-04-16T22:11:31.831Z,98176.19
2023-04-16T22:13:58.285Z,98186.78
2023-04-16T22:16:24.908Z,98182.31
2023-04-16T22:18:51.496Z,98176.72
2023-04-16T22:21:18.067Z,98174.66
2023-04-16T22:23:45.262Z,98176.91
2023-04-16T22:26:12.751Z,98177.44
2023-04-16T22:28:39.200Z,98178.88
2023-04-16T22:31:05.801Z,98182.28
2023-04-16T22:33:32.307Z,98183.09
2023-04-16T22:35:59.828Z,98181.47
2023-04-16T22:38:26.336Z,98178.81
2023-04-16T22:40:52.803Z,98178.41
2023-04-16T22:43:19.264Z,98173.34
2023-04-16T22:45:46.389Z,98179.34
2023-04-16T22:48:13.044Z,98181.78
2023-04-16T22:50:40.608Z,98184.56
2023-04-16T22:53:07.134Z,98177.88
2023-04-16T22:55:33.605Z,98187.00
2023-04-16T22:58:00.351Z,98179.59
2023-04-16T23:00:27.292Z,98178.00
2023-04-16T23:02:53.894Z,98174.78
2023-04-16T23:05:20.528Z,98185.03
2023-04-16T23:07:47.028Z,98172.09
2023-04-16T23:10:13.507Z,98177.13
2023-04-16T23:12:40.120Z,98175.69
2023-04-16T23:15:07.093Z,98169.13
2023-04-16T23:17:33.832Z,98173.78
2023-04-16T23:20:00.476Z,98173.72
2023-04-16T23:22:26.980Z,98171.31
2023-04-16T23:24:53.563Z,98176.59
2023-04-16T23:27:20.084Z,98176.09
2023-04-16T23:29:46.656Z,98178.78
2023-04-16T23:32:13.160Z,98173.81
2023-04-16T23:34:39.625Z,98181.56
2023-04-16T23:37:06.637Z,98169.66
2023-04-16T23:39:33.146Z,98173.25
2023-04-16T23:41:59.606Z,98173.19
2023-04-16T23:44:26.116Z,98173.03
2023-04-16T23:46:52.630Z,98170.25
2023-04-16T23:49:19.258Z,98166.91
2023-04-16T23:51:45.800Z,98161.44
2023-04-16T23:54:12.252Z,98163.91
2023-04-16T23:56:38.740Z,98159.63
2023-04-16T23:59:05.525Z,98159.28
